Airfield :
LOGIN :

Register | Disclaimer

   EN    FR    IT 

 










Legend :    VFR   Marginal VFR   IFR   Intensive IFR   Very Intensive IFR
Visi :
Ceiling :
>= 8 km
>= 3000ft
5 to 8 km
1000 to 3000 ft
1500m to 5 km
500 to 1000 ft
800 to 1500m
200 to 500 ft
< 800m
< 200 ft
Symbols :   Thunderstorms  Fog  Heavy snow  Heavy precipitations  Wind > 20 kt
SIGMETs :     Misc.  Thunderstorms  Icing  Turbulence  Mountain Waves  Volcanic Ashes







- Airport Elevation : 7 ft
- IATA code : XHE
- Download approach charts


LFTH - Hyeres

CURRENT METAR :
  • 211530Z AUTO 07014KT 9999 -RA BKN036/// BKN054/// BKN072/// ///TCU 20/15 Q1017 TEMPO VRB25G35KT 3000 TSRA SCT010 BKN020CB

EXPIRED METARs :
  • 211500Z AUTO 07016KT 9999 -RA BKN036/// OVC160/// ///TCU 21/14 Q1016 TEMPO VRB25G35KT 3000 TSRA SCT010 BKN020CB
  • 211430Z AUTO 07017KT 040V100 9999 BKN040/// BKN160/// ///TCU 21/15 Q1017 TEMPO VRB25G35KT 3000 TSRA SCT010 BKN020CB
  • 211400Z AUTO 07015KT 9999 OVC041/// ///TCU 22/15 Q1017 BECMG 09020G30KT RA FEW040CB BKN050 OVC140
  • 211330Z AUTO 08014KT 040V110 9999 -RA FEW032/// OVC039/// ///TCU 21/15 Q1018 BECMG 09020G30KT RA FEW040CB BKN050 OVC140
  • 211300Z AUTO 08017KT 9999 -RA OVC041/// ///TCU 21/15 Q1018 BECMG 09020G30KT RA FEW040CB BKN050 OVC140

TAF TAF LFTH
Valid from the 21 at 15:00 until the 22 at 15:00 UTC


211400Z 2115/2215 07020KT 9999 RA SCT030CB OVC040
TEMPO 2116/2120 VRB25G35KT 3000 TSRA SCT010 BKN020CB
TEMPO 2120/2215 NSW
No reported NOTAMs for that airfield.



MET'MAP, your aeronautical weather chart ! - Copyright ORBIFLY December 2007 - Disclaimer

ORBIFLY MET'MAP TEAM :

Programming & Development : Alexandra Zaïnal
Concept & Development : Baudouin d'Aumeries
Co-Development & Prog : Marc-Olivier Méhu
Technical & hardware support : Manuel Goepfert

Contact : metmap@orbifly.com




SOURCES & CREDITS :

   NOAA